sensor_id;sensor_type;location;lat;lon;timestamp;P1;durP1;ratioP1;P2;durP2;ratioP2
505;SDS011;551;48.524;9.056;2022-10-22T00:01:52;6.93;;;2.40;;
505;SDS011;551;48.524;9.056;2022-10-22T00:04:18;3.57;;;1.87;;
505;SDS011;551;48.524;9.056;2022-10-22T00:06:43;1.90;;;1.70;;
505;SDS011;551;48.524;9.056;2022-10-22T00:09:09;4.57;;;1.80;;
505;SDS011;551;48.524;9.056;2022-10-22T00:11:36;2.10;;;1.80;;
505;SDS011;551;48.524;9.056;2022-10-22T00:14:02;5.57;;;2.10;;
505;SDS011;551;48.524;9.056;2022-10-22T00:16:27;1.83;;;1.70;;
505;SDS011;551;48.524;9.056;2022-10-22T00:18:53;3.03;;;2.50;;
505;SDS011;551;48.524;9.056;2022-10-22T00:21:18;4.50;;;2.37;;
505;SDS011;551;48.524;9.056;2022-10-22T00:23:44;2.10;;;2.00;;
505;SDS011;551;48.524;9.056;2022-10-22T00:26:09;4.10;;;1.93;;
505;SDS011;551;48.524;9.056;2022-10-22T00:28:36;3.00;;;2.10;;
505;SDS011;551;48.524;9.056;2022-10-22T00:31:01;5.23;;;2.83;;
505;SDS011;551;48.524;9.056;2022-10-22T00:33:27;6.90;;;2.13;;
505;SDS011;551;48.524;9.056;2022-10-22T00:35:54;4.13;;;2.10;;
505;SDS011;551;48.524;9.056;2022-10-22T00:38:20;4.30;;;2.57;;
505;SDS011;551;48.524;9.056;2022-10-22T00:40:45;4.40;;;2.23;;
505;SDS011;551;48.524;9.056;2022-10-22T00:43:12;3.47;;;1.80;;
505;SDS011;551;48.524;9.056;2022-10-22T00:45:39;3.37;;;1.83;;
505;SDS011;551;48.524;9.056;2022-10-22T00:48:09;3.63;;;2.20;;
505;SDS011;551;48.524;9.056;2022-10-22T00:53:12;3.63;;;1.60;;
505;SDS011;551;48.524;9.056;2022-10-22T00:55:40;1.50;;;1.30;;
505;SDS011;551;48.524;9.056;2022-10-22T00:58:09;5.77;;;1.60;;
505;SDS011;551;48.524;9.056;2022-10-22T01:00:36;3.33;;;1.73;;
505;SDS011;551;48.524;9.056;2022-10-22T01:03:02;2.03;;;1.73;;
505;SDS011;551;48.524;9.056;2022-10-22T01:05:28;3.63;;;1.97;;
505;SDS011;551;48.524;9.056;2022-10-22T01:07:56;2.07;;;1.70;;
505;SDS011;551;48.524;9.056;2022-10-22T01:11:05;3.07;;;1.83;;
505;SDS011;551;48.524;9.056;2022-10-22T01:29:00;2.17;;;1.60;;
505;SDS011;551;48.524;9.056;2022-10-22T01:31:33;3.40;;;1.30;;
505;SDS011;551;48.524;9.056;2022-10-22T01:34:02;1.20;;;1.10;;
505;SDS011;551;48.524;9.056;2022-10-22T01:36:29;1.43;;;1.33;;
505;SDS011;551;48.524;9.056;2022-10-22T01:38:57;1.63;;;1.53;;
505;SDS011;551;48.524;9.056;2022-10-22T01:41:26;5.03;;;1.83;;
505;SDS011;551;48.524;9.056;2022-10-22T01:43:52;1.73;;;1.47;;
505;SDS011;551;48.524;9.056;2022-10-22T01:46:18;1.40;;;1.30;;
505;SDS011;551;48.524;9.056;2022-10-22T01:56:57;1.87;;;1.50;;
505;SDS011;551;48.524;9.056;2022-10-22T01:59:32;3.53;;;1.70;;
505;SDS011;551;48.524;9.056;2022-10-22T02:04:55;2.30;;;1.30;;
505;SDS011;551;48.524;9.056;2022-10-22T02:07:26;2.73;;;1.30;;
505;SDS011;551;48.524;9.056;2022-10-22T02:09:56;3.07;;;1.53;;
505;SDS011;551;48.524;9.056;2022-10-22T02:12:24;1.37;;;1.10;;
505;SDS011;551;48.524;9.056;2022-10-22T02:14:51;3.60;;;1.30;;
505;SDS011;551;48.524;9.056;2022-10-22T02:17:20;1.47;;;1.20;;
505;SDS011;551;48.524;9.056;2022-10-22T02:22:17;1.40;;;1.30;;
505;SDS011;551;48.524;9.056;2022-10-22T02:24:43;2.57;;;1.30;;
505;SDS011;551;48.524;9.056;2022-10-22T02:27:20;1.13;;;1.10;;
505;SDS011;551;48.524;9.056;2022-10-22T02:30:14;1.70;;;1.40;;
505;SDS011;551;48.524;9.056;2022-10-22T02:32:49;2.40;;;1.20;;
505;SDS011;551;48.524;9.056;2022-10-22T02:35:20;3.43;;;1.30;;
505;SDS011;551;48.524;9.056;2022-10-22T02:37:47;5.33;;;1.30;;
505;SDS011;551;48.524;9.056;2022-10-22T02:40:14;1.37;;;1.20;;
505;SDS011;551;48.524;9.056;2022-10-22T02:42:39;1.33;;;1.23;;
505;SDS011;551;48.524;9.056;2022-10-22T02:45:07;2.33;;;1.20;;
505;SDS011;551;48.524;9.056;2022-10-22T02:47:33;1.70;;;1.20;;
505;SDS011;551;48.524;9.056;2022-10-22T02:49:58;4.50;;;1.50;;
505;SDS011;551;48.524;9.056;2022-10-22T02:52:24;6.30;;;1.30;;
505;SDS011;551;48.524;9.056;2022-10-22T02:54:49;1.83;;;1.17;;
505;SDS011;551;48.524;9.056;2022-10-22T02:57:14;1.97;;;1.20;;
505;SDS011;551;48.524;9.056;2022-10-22T02:59:40;2.47;;;1.20;;
505;SDS011;551;48.524;9.056;2022-10-22T03:02:05;2.70;;;1.30;;
505;SDS011;551;48.524;9.056;2022-10-22T03:04:31;2.70;;;1.40;;
505;SDS011;551;48.524;9.056;2022-10-22T03:06:57;1.67;;;1.20;;
505;SDS011;551;48.524;9.056;2022-10-22T03:09:23;5.80;;;1.33;;
505;SDS011;551;48.524;9.056;2022-10-22T03:11:49;1.30;;;1.20;;
505;SDS011;551;48.524;9.056;2022-10-22T03:14:14;1.27;;;1.20;;
505;SDS011;551;48.524;9.056;2022-10-22T03:16:40;1.20;;;1.10;;
505;SDS011;551;48.524;9.056;2022-10-22T03:19:05;1.50;;;1.30;;
505;SDS011;551;48.524;9.056;2022-10-22T03:21:44;4.87;;;1.30;;
505;SDS011;551;48.524;9.056;2022-10-22T03:24:18;1.03;;;1.00;;
505;SDS011;551;48.524;9.056;2022-10-22T03:26:54;3.93;;;1.63;;
505;SDS011;551;48.524;9.056;2022-10-22T03:29:20;1.47;;;1.20;;
505;SDS011;551;48.524;9.056;2022-10-22T03:31:47;3.33;;;1.27;;
505;SDS011;551;48.524;9.056;2022-10-22T03:34:13;1.40;;;1.20;;
505;SDS011;551;48.524;9.056;2022-10-22T03:36:39;1.17;;;1.03;;
505;SDS011;551;48.524;9.056;2022-10-22T03:39:05;1.10;;;1.00;;
505;SDS011;551;48.524;9.056;2022-10-22T03:41:31;1.43;;;1.30;;
505;SDS011;551;48.524;9.056;2022-10-22T03:43:59;1.00;;;1.00;;
505;SDS011;551;48.524;9.056;2022-10-22T03:46:26;3.70;;;0.90;;
505;SDS011;551;48.524;9.056;2022-10-22T03:48:52;2.10;;;1.10;;
505;SDS011;551;48.524;9.056;2022-10-22T03:51:17;1.50;;;1.13;;
505;SDS011;551;48.524;9.056;2022-10-22T03:53:43;1.87;;;1.20;;
505;SDS011;551;48.524;9.056;2022-10-22T03:56:09;3.43;;;1.20;;
505;SDS011;551;48.524;9.056;2022-10-22T03:58:36;1.57;;;1.30;;
505;SDS011;551;48.524;9.056;2022-10-22T04:01:03;1.20;;;1.10;;
505;SDS011;551;48.524;9.056;2022-10-22T04:03:34;1.70;;;1.10;;
505;SDS011;551;48.524;9.056;2022-10-22T04:06:04;2.20;;;1.30;;
505;SDS011;551;48.524;9.056;2022-10-22T04:08:34;4.53;;;1.20;;
505;SDS011;551;48.524;9.056;2022-10-22T04:11:00;4.90;;;1.30;;
505;SDS011;551;48.524;9.056;2022-10-22T04:13:25;2.20;;;1.20;;
505;SDS011;551;48.524;9.056;2022-10-22T04:15:51;1.83;;;1.73;;
505;SDS011;551;48.524;9.056;2022-10-22T04:18:17;2.60;;;1.73;;
505;SDS011;551;48.524;9.056;2022-10-22T04:20:43;3.90;;;1.60;;
505;SDS011;551;48.524;9.056;2022-10-22T04:23:09;1.30;;;1.20;;
505;SDS011;551;48.524;9.056;2022-10-22T04:25:35;3.63;;;1.70;;
505;SDS011;551;48.524;9.056;2022-10-22T04:28:00;6.00;;;1.50;;
505;SDS011;551;48.524;9.056;2022-10-22T04:30:26;5.43;;;1.60;;
505;SDS011;551;48.524;9.056;2022-10-22T04:32:51;1.73;;;1.63;;
505;SDS011;551;48.524;9.056;2022-10-22T04:35:17;1.40;;;1.30;;
505;SDS011;551;48.524;9.056;2022-10-22T04:37:42;2.60;;;1.53;;
505;SDS011;551;48.524;9.056;2022-10-22T04:40:08;1.60;;;1.50;;
505;SDS011;551;48.524;9.056;2022-10-22T04:42:34;1.47;;;1.30;;
505;SDS011;551;48.524;9.056;2022-10-22T04:45:00;5.13;;;1.47;;
505;SDS011;551;48.524;9.056;2022-10-22T04:47:25;2.20;;;1.60;;
505;SDS011;551;48.524;9.056;2022-10-22T04:49:51;1.80;;;1.70;;
505;SDS011;551;48.524;9.056;2022-10-22T04:52:16;3.10;;;1.70;;
505;SDS011;551;48.524;9.056;2022-10-22T04:54:42;3.73;;;1.57;;
505;SDS011;551;48.524;9.056;2022-10-22T04:57:07;4.27;;;2.10;;
505;SDS011;551;48.524;9.056;2022-10-22T04:59:33;3.27;;;1.77;;
505;SDS011;551;48.524;9.056;2022-10-22T05:01:58;1.40;;;1.30;;
505;SDS011;551;48.524;9.056;2022-10-22T05:04:24;2.93;;;1.60;;
505;SDS011;551;48.524;9.056;2022-10-22T05:06:49;3.23;;;2.00;;
505;SDS011;551;48.524;9.056;2022-10-22T05:09:17;2.20;;;1.73;;
505;SDS011;551;48.524;9.056;2022-10-22T05:11:45;2.90;;;1.63;;
505;SDS011;551;48.524;9.056;2022-10-22T05:14:16;3.63;;;1.87;;
505;SDS011;551;48.524;9.056;2022-10-22T05:16:48;2.60;;;1.73;;
505;SDS011;551;48.524;9.056;2022-10-22T05:19:19;2.03;;;1.60;;
505;SDS011;551;48.524;9.056;2022-10-22T05:21:54;4.40;;;2.10;;
505;SDS011;551;48.524;9.056;2022-10-22T05:24:22;3.83;;;1.80;;
505;SDS011;551;48.524;9.056;2022-10-22T05:26:49;3.10;;;1.77;;
505;SDS011;551;48.524;9.056;2022-10-22T05:29:16;4.93;;;1.90;;
505;SDS011;551;48.524;9.056;2022-10-22T05:31:42;2.10;;;1.90;;
505;SDS011;551;48.524;9.056;2022-10-22T05:34:07;4.80;;;2.00;;
505;SDS011;551;48.524;9.056;2022-10-22T05:36:33;2.47;;;1.93;;
505;SDS011;551;48.524;9.056;2022-10-22T05:38:58;2.07;;;1.60;;
505;SDS011;551;48.524;9.056;2022-10-22T05:41:24;2.40;;;1.60;;
505;SDS011;551;48.524;9.056;2022-10-22T05:43:53;2.33;;;2.13;;
505;SDS011;551;48.524;9.056;2022-10-22T05:46:20;3.73;;;1.90;;
505;SDS011;551;48.524;9.056;2022-10-22T05:48:47;2.40;;;2.20;;
505;SDS011;551;48.524;9.056;2022-10-22T05:51:18;2.60;;;2.07;;
505;SDS011;551;48.524;9.056;2022-10-22T05:53:44;12.20;;;2.50;;
505;SDS011;551;48.524;9.056;2022-10-22T05:56:14;2.03;;;1.87;;
505;SDS011;551;48.524;9.056;2022-10-22T05:58:40;1.70;;;1.60;;
505;SDS011;551;48.524;9.056;2022-10-22T06:01:14;2.10;;;1.90;;
505;SDS011;551;48.524;9.056;2022-10-22T06:03:41;2.77;;;1.90;;
505;SDS011;551;48.524;9.056;2022-10-22T06:06:20;2.40;;;2.10;;
505;SDS011;551;48.524;9.056;2022-10-22T06:08:52;3.27;;;1.67;;
505;SDS011;551;48.524;9.056;2022-10-22T06:11:20;2.90;;;1.90;;
505;SDS011;551;48.524;9.056;2022-10-22T06:13:46;2.30;;;1.70;;
505;SDS011;551;48.524;9.056;2022-10-22T06:16:13;2.10;;;1.80;;
505;SDS011;551;48.524;9.056;2022-10-22T06:18:38;2.60;;;2.10;;
505;SDS011;551;48.524;9.056;2022-10-22T06:21:05;2.80;;;2.20;;
505;SDS011;551;48.524;9.056;2022-10-22T06:23:31;2.90;;;1.97;;
505;SDS011;551;48.524;9.056;2022-10-22T06:25:57;3.50;;;2.53;;
505;SDS011;551;48.524;9.056;2022-10-22T06:28:23;2.93;;;2.70;;
505;SDS011;551;48.524;9.056;2022-10-22T06:30:49;2.57;;;2.47;;
505;SDS011;551;48.524;9.056;2022-10-22T06:33:15;4.53;;;2.30;;
505;SDS011;551;48.524;9.056;2022-10-22T06:35:40;4.20;;;2.00;;
505;SDS011;551;48.524;9.056;2022-10-22T06:38:06;2.27;;;2.07;;
505;SDS011;551;48.524;9.056;2022-10-22T06:40:32;2.20;;;2.07;;
505;SDS011;551;48.524;9.056;2022-10-22T06:42:58;4.60;;;2.30;;
505;SDS011;551;48.524;9.056;2022-10-22T06:45:24;3.13;;;2.27;;
505;SDS011;551;48.524;9.056;2022-10-22T06:47:49;3.30;;;2.57;;
505;SDS011;551;48.524;9.056;2022-10-22T06:50:15;3.13;;;2.17;;
505;SDS011;551;48.524;9.056;2022-10-22T06:52:41;4.53;;;2.27;;
505;SDS011;551;48.524;9.056;2022-10-22T06:55:06;2.50;;;2.03;;
505;SDS011;551;48.524;9.056;2022-10-22T06:57:32;2.27;;;2.17;;
505;SDS011;551;48.524;9.056;2022-10-22T06:59:58;2.50;;;2.13;;
505;SDS011;551;48.524;9.056;2022-10-22T07:02:23;8.57;;;2.57;;
505;SDS011;551;48.524;9.056;2022-10-22T07:04:49;5.57;;;2.70;;
505;SDS011;551;48.524;9.056;2022-10-22T07:07:14;7.67;;;2.60;;
505;SDS011;551;48.524;9.056;2022-10-22T07:09:40;5.47;;;2.67;;
505;SDS011;551;48.524;9.056;2022-10-22T07:12:05;2.87;;;2.10;;
505;SDS011;551;48.524;9.056;2022-10-22T07:14:31;5.17;;;2.80;;
505;SDS011;551;48.524;9.056;2022-10-22T07:16:56;9.60;;;2.53;;
505;SDS011;551;48.524;9.056;2022-10-22T07:19:22;2.80;;;2.07;;
505;SDS011;551;48.524;9.056;2022-10-22T07:21:47;2.30;;;2.00;;
505;SDS011;551;48.524;9.056;2022-10-22T07:24:13;3.13;;;2.20;;
505;SDS011;551;48.524;9.056;2022-10-22T07:26:38;2.97;;;2.43;;
505;SDS011;551;48.524;9.056;2022-10-22T07:29:04;2.43;;;2.20;;
505;SDS011;551;48.524;9.056;2022-10-22T07:31:30;3.83;;;2.53;;
505;SDS011;551;48.524;9.056;2022-10-22T07:33:56;1.93;;;1.83;;
505;SDS011;551;48.524;9.056;2022-10-22T07:36:21;2.53;;;2.30;;
505;SDS011;551;48.524;9.056;2022-10-22T07:38:48;3.73;;;2.00;;
505;SDS011;551;48.524;9.056;2022-10-22T07:41:18;3.30;;;3.00;;
505;SDS011;551;48.524;9.056;2022-10-22T07:43:44;7.20;;;2.67;;
505;SDS011;551;48.524;9.056;2022-10-22T07:46:09;4.37;;;2.90;;
505;SDS011;551;48.524;9.056;2022-10-22T07:48:35;3.27;;;2.73;;
505;SDS011;551;48.524;9.056;2022-10-22T07:51:01;6.73;;;3.10;;
505;SDS011;551;48.524;9.056;2022-10-22T07:53:27;4.80;;;3.30;;
505;SDS011;551;48.524;9.056;2022-10-22T07:55:53;4.90;;;3.17;;
505;SDS011;551;48.524;9.056;2022-10-22T07:58:19;5.80;;;2.57;;
505;SDS011;551;48.524;9.056;2022-10-22T08:00:45;4.20;;;2.80;;
505;SDS011;551;48.524;9.056;2022-10-22T08:03:12;2.47;;;1.43;;
505;SDS011;551;48.524;9.056;2022-10-22T08:05:39;2.50;;;1.70;;
505;SDS011;551;48.524;9.056;2022-10-22T08:08:07;3.47;;;1.80;;
505;SDS011;551;48.524;9.056;2022-10-22T08:10:33;1.77;;;1.67;;
505;SDS011;551;48.524;9.056;2022-10-22T08:12:59;6.53;;;2.10;;
505;SDS011;551;48.524;9.056;2022-10-22T08:15:25;2.83;;;1.83;;
505;SDS011;551;48.524;9.056;2022-10-22T08:17:51;3.63;;;2.00;;
505;SDS011;551;48.524;9.056;2022-10-22T08:20:17;3.30;;;2.00;;
505;SDS011;551;48.524;9.056;2022-10-22T08:22:43;4.37;;;2.17;;
505;SDS011;551;48.524;9.056;2022-10-22T08:25:09;2.97;;;2.70;;
505;SDS011;551;48.524;9.056;2022-10-22T08:27:35;4.33;;;2.20;;
505;SDS011;551;48.524;9.056;2022-10-22T08:30:02;4.43;;;2.70;;
505;SDS011;551;48.524;9.056;2022-10-22T08:32:28;1.83;;;1.73;;
505;SDS011;551;48.524;9.056;2022-10-22T08:34:54;2.87;;;2.13;;
505;SDS011;551;48.524;9.056;2022-10-22T08:37:19;4.13;;;2.17;;
505;SDS011;551;48.524;9.056;2022-10-22T08:39:45;3.03;;;1.97;;
505;SDS011;551;48.524;9.056;2022-10-22T08:42:24;2.43;;;1.90;;
505;SDS011;551;48.524;9.056;2022-10-22T08:47:42;1.60;;;1.40;;
505;SDS011;551;48.524;9.056;2022-10-22T08:50:13;3.63;;;1.40;;
505;SDS011;551;48.524;9.056;2022-10-22T08:52:41;1.83;;;1.60;;
505;SDS011;551;48.524;9.056;2022-10-22T08:55:11;1.70;;;1.60;;
505;SDS011;551;48.524;9.056;2022-10-22T08:57:51;2.10;;;1.87;;
505;SDS011;551;48.524;9.056;2022-10-22T09:00:20;3.93;;;1.40;;
505;SDS011;551;48.524;9.056;2022-10-22T09:05:27;1.67;;;1.57;;
505;SDS011;551;48.524;9.056;2022-10-22T09:07:54;1.63;;;1.53;;
505;SDS011;551;48.524;9.056;2022-10-22T09:10:21;1.70;;;1.60;;
505;SDS011;551;48.524;9.056;2022-10-22T09:12:49;2.03;;;1.93;;
505;SDS011;551;48.524;9.056;2022-10-22T09:15:15;4.80;;;1.70;;
505;SDS011;551;48.524;9.056;2022-10-22T09:20:27;2.63;;;1.70;;
505;SDS011;551;48.524;9.056;2022-10-22T09:25:35;2.90;;;1.73;;
505;SDS011;551;48.524;9.056;2022-10-22T09:28:01;2.90;;;1.90;;
505;SDS011;551;48.524;9.056;2022-10-22T09:30:28;2.30;;;1.53;;
505;SDS011;551;48.524;9.056;2022-10-22T09:33:01;3.27;;;1.40;;
505;SDS011;551;48.524;9.056;2022-10-22T09:36:14;1.60;;;1.50;;
505;SDS011;551;48.524;9.056;2022-10-22T09:38:23;1.73;;;1.63;;
505;SDS011;551;48.524;9.056;2022-10-22T09:40:50;1.70;;;1.60;;
505;SDS011;551;48.524;9.056;2022-10-22T09:43:16;1.80;;;1.70;;
505;SDS011;551;48.524;9.056;2022-10-22T09:45:44;2.50;;;1.83;;
505;SDS011;551;48.524;9.056;2022-10-22T09:48:13;1.70;;;1.60;;
505;SDS011;551;48.524;9.056;2022-10-22T09:50:45;2.87;;;1.60;;
505;SDS011;551;48.524;9.056;2022-10-22T09:53:22;1.77;;;1.67;;
505;SDS011;551;48.524;9.056;2022-10-22T09:55:51;1.87;;;1.70;;
505;SDS011;551;48.524;9.056;2022-10-22T09:58:18;2.93;;;1.73;;
505;SDS011;551;48.524;9.056;2022-10-22T10:00:45;1.67;;;1.57;;
505;SDS011;551;48.524;9.056;2022-10-22T10:03:14;2.40;;;1.60;;
505;SDS011;551;48.524;9.056;2022-10-22T10:05:41;1.60;;;1.50;;
505;SDS011;551;48.524;9.056;2022-10-22T10:08:12;1.70;;;1.50;;
505;SDS011;551;48.524;9.056;2022-10-22T10:13:08;1.70;;;1.60;;
505;SDS011;551;48.524;9.056;2022-10-22T10:15:37;1.60;;;1.50;;
505;SDS011;551;48.524;9.056;2022-10-22T10:20:41;1.90;;;1.80;;
505;SDS011;551;48.524;9.056;2022-10-22T10:33:40;3.77;;;1.70;;
505;SDS011;551;48.524;9.056;2022-10-22T10:38:47;2.17;;;1.47;;
505;SDS011;551;48.524;9.056;2022-10-22T10:41:22;5.40;;;1.73;;
505;SDS011;551;48.524;9.056;2022-10-22T10:49:16;5.63;;;1.80;;
505;SDS011;551;48.524;9.056;2022-10-22T10:54:15;2.50;;;2.00;;
505;SDS011;551;48.524;9.056;2022-10-22T10:59:13;3.37;;;1.60;;
505;SDS011;551;48.524;9.056;2022-10-22T11:02:07;2.33;;;1.83;;
505;SDS011;551;48.524;9.056;2022-10-22T11:04:45;3.80;;;1.80;;
505;SDS011;551;48.524;9.056;2022-10-22T11:07:19;4.60;;;2.10;;
505;SDS011;551;48.524;9.056;2022-10-22T11:09:59;2.00;;;1.67;;
505;SDS011;551;48.524;9.056;2022-10-22T11:12:33;4.70;;;1.77;;
505;SDS011;551;48.524;9.056;2022-10-22T11:15:02;1.53;;;1.43;;
505;SDS011;551;48.524;9.056;2022-10-22T11:17:35;2.90;;;1.60;;
505;SDS011;551;48.524;9.056;2022-10-22T11:20:06;2.10;;;1.57;;
505;SDS011;551;48.524;9.056;2022-10-22T11:22:38;5.00;;;1.90;;
505;SDS011;551;48.524;9.056;2022-10-22T11:27:44;2.73;;;1.70;;
505;SDS011;551;48.524;9.056;2022-10-22T11:30:16;5.40;;;2.50;;
505;SDS011;551;48.524;9.056;2022-10-22T11:32:43;3.30;;;1.97;;
505;SDS011;551;48.524;9.056;2022-10-22T11:35:14;1.97;;;1.50;;
505;SDS011;551;48.524;9.056;2022-10-22T11:37:41;1.77;;;1.67;;
505;SDS011;551;48.524;9.056;2022-10-22T11:40:24;2.47;;;2.10;;
505;SDS011;551;48.524;9.056;2022-10-22T11:42:58;4.10;;;1.60;;
505;SDS011;551;48.524;9.056;2022-10-22T11:45:29;1.60;;;1.50;;
505;SDS011;551;48.524;9.056;2022-10-22T11:55:46;4.40;;;1.70;;
505;SDS011;551;48.524;9.056;2022-10-22T11:58:25;2.90;;;1.80;;
505;SDS011;551;48.524;9.056;2022-10-22T12:00:52;1.93;;;1.80;;
505;SDS011;551;48.524;9.056;2022-10-22T12:08:40;3.27;;;2.33;;
505;SDS011;551;48.524;9.056;2022-10-22T12:16:23;4.47;;;2.50;;
505;SDS011;551;48.524;9.056;2022-10-22T12:18:52;4.70;;;2.80;;
505;SDS011;551;48.524;9.056;2022-10-22T12:21:20;4.80;;;2.57;;
505;SDS011;551;48.524;9.056;2022-10-22T12:23:46;2.67;;;2.50;;
505;SDS011;551;48.524;9.056;2022-10-22T12:26:22;2.30;;;2.10;;
505;SDS011;551;48.524;9.056;2022-10-22T12:28:49;3.07;;;2.77;;
505;SDS011;551;48.524;9.056;2022-10-22T12:31:16;2.70;;;2.50;;
505;SDS011;551;48.524;9.056;2022-10-22T12:33:42;2.90;;;2.67;;
505;SDS011;551;48.524;9.056;2022-10-22T12:36:14;2.67;;;2.47;;
505;SDS011;551;48.524;9.056;2022-10-22T12:38:44;3.30;;;2.80;;
505;SDS011;551;48.524;9.056;2022-10-22T12:41:11;2.63;;;2.53;;
505;SDS011;551;48.524;9.056;2022-10-22T12:43:37;3.20;;;2.83;;
505;SDS011;551;48.524;9.056;2022-10-22T12:46:03;2.33;;;2.23;;
505;SDS011;551;48.524;9.056;2022-10-22T12:48:30;2.70;;;2.50;;
505;SDS011;551;48.524;9.056;2022-10-22T12:51:01;2.80;;;2.60;;
505;SDS011;551;48.524;9.056;2022-10-22T12:53:35;4.07;;;2.60;;
505;SDS011;551;48.524;9.056;2022-10-22T12:56:04;2.80;;;2.50;;
505;SDS011;551;48.524;9.056;2022-10-22T12:58:38;3.10;;;2.57;;
505;SDS011;551;48.524;9.056;2022-10-22T13:01:08;3.33;;;2.87;;
505;SDS011;551;48.524;9.056;2022-10-22T13:03:39;3.10;;;2.83;;
505;SDS011;551;48.524;9.056;2022-10-22T13:08:43;3.63;;;2.70;;
505;SDS011;551;48.524;9.056;2022-10-22T13:11:19;2.90;;;2.50;;
505;SDS011;551;48.524;9.056;2022-10-22T13:13:45;3.47;;;3.10;;
505;SDS011;551;48.524;9.056;2022-10-22T13:16:21;3.10;;;2.60;;
505;SDS011;551;48.524;9.056;2022-10-22T13:18:51;2.70;;;2.50;;
505;SDS011;551;48.524;9.056;2022-10-22T13:21:28;5.17;;;3.23;;
505;SDS011;551;48.524;9.056;2022-10-22T13:24:18;2.80;;;2.57;;
505;SDS011;551;48.524;9.056;2022-10-22T13:26:47;3.70;;;2.67;;
505;SDS011;551;48.524;9.056;2022-10-22T13:29:14;2.90;;;2.60;;
505;SDS011;551;48.524;9.056;2022-10-22T13:31:44;2.50;;;2.40;;
505;SDS011;551;48.524;9.056;2022-10-22T13:34:13;4.40;;;2.73;;
505;SDS011;551;48.524;9.056;2022-10-22T13:36:45;3.30;;;2.53;;
505;SDS011;551;48.524;9.056;2022-10-22T13:39:17;2.77;;;2.57;;
505;SDS011;551;48.524;9.056;2022-10-22T13:41:43;3.87;;;2.83;;
505;SDS011;551;48.524;9.056;2022-10-22T13:44:09;2.63;;;2.43;;
505;SDS011;551;48.524;9.056;2022-10-22T13:46:34;4.00;;;2.90;;
505;SDS011;551;48.524;9.056;2022-10-22T13:49:06;2.57;;;2.37;;
505;SDS011;551;48.524;9.056;2022-10-22T13:51:36;2.93;;;2.70;;
505;SDS011;551;48.524;9.056;2022-10-22T13:54:03;7.03;;;2.80;;
505;SDS011;551;48.524;9.056;2022-10-22T13:56:37;4.10;;;2.20;;
505;SDS011;551;48.524;9.056;2022-10-22T13:59:03;2.53;;;2.10;;
505;SDS011;551;48.524;9.056;2022-10-22T14:01:28;2.70;;;2.00;;
505;SDS011;551;48.524;9.056;2022-10-22T14:03:55;1.90;;;1.60;;
505;SDS011;551;48.524;9.056;2022-10-22T14:06:23;2.00;;;1.40;;
505;SDS011;551;48.524;9.056;2022-10-22T14:08:57;5.03;;;2.93;;
505;SDS011;551;48.524;9.056;2022-10-22T14:11:25;3.80;;;1.87;;
505;SDS011;551;48.524;9.056;2022-10-22T14:13:54;3.90;;;1.87;;
505;SDS011;551;48.524;9.056;2022-10-22T14:16:20;3.13;;;1.70;;
505;SDS011;551;48.524;9.056;2022-10-22T14:18:47;5.33;;;1.80;;
505;SDS011;551;48.524;9.056;2022-10-22T14:21:13;1.97;;;1.60;;
505;SDS011;551;48.524;9.056;2022-10-22T14:23:40;3.30;;;1.57;;
505;SDS011;551;48.524;9.056;2022-10-22T14:26:07;1.80;;;1.70;;
505;SDS011;551;48.524;9.056;2022-10-22T14:28:34;4.93;;;1.93;;
505;SDS011;551;48.524;9.056;2022-10-22T14:31:00;2.90;;;1.93;;
505;SDS011;551;48.524;9.056;2022-10-22T14:33:27;3.97;;;1.40;;
505;SDS011;551;48.524;9.056;2022-10-22T14:35:54;4.00;;;2.30;;
505;SDS011;551;48.524;9.056;2022-10-22T14:38:20;2.27;;;1.60;;
505;SDS011;551;48.524;9.056;2022-10-22T14:40:46;3.83;;;2.10;;
505;SDS011;551;48.524;9.056;2022-10-22T14:43:15;2.90;;;1.70;;
505;SDS011;551;48.524;9.056;2022-10-22T14:45:43;3.53;;;1.80;;
505;SDS011;551;48.524;9.056;2022-10-22T14:48:08;1.53;;;1.43;;
505;SDS011;551;48.524;9.056;2022-10-22T14:50:34;4.83;;;1.87;;
505;SDS011;551;48.524;9.056;2022-10-22T14:53:00;3.43;;;1.57;;
505;SDS011;551;48.524;9.056;2022-10-22T14:55:26;2.27;;;1.47;;
505;SDS011;551;48.524;9.056;2022-10-22T14:57:53;1.77;;;1.47;;
505;SDS011;551;48.524;9.056;2022-10-22T15:00:19;2.70;;;1.50;;
505;SDS011;551;48.524;9.056;2022-10-22T15:02:45;2.43;;;1.50;;
505;SDS011;551;48.524;9.056;2022-10-22T15:05:12;4.13;;;1.70;;
505;SDS011;551;48.524;9.056;2022-10-22T15:07:38;2.17;;;1.50;;
505;SDS011;551;48.524;9.056;2022-10-22T15:10:04;3.27;;;1.90;;
505;SDS011;551;48.524;9.056;2022-10-22T15:12:31;2.60;;;1.70;;
505;SDS011;551;48.524;9.056;2022-10-22T15:14:57;4.23;;;1.80;;
505;SDS011;551;48.524;9.056;2022-10-22T15:17:23;1.70;;;1.60;;
505;SDS011;551;48.524;9.056;2022-10-22T15:19:49;3.93;;;1.80;;
505;SDS011;551;48.524;9.056;2022-10-22T15:22:15;5.77;;;1.50;;
505;SDS011;551;48.524;9.056;2022-10-22T15:24:41;1.90;;;1.40;;
505;SDS011;551;48.524;9.056;2022-10-22T15:27:12;1.97;;;1.73;;
505;SDS011;551;48.524;9.056;2022-10-22T15:29:39;5.37;;;1.97;;
505;SDS011;551;48.524;9.056;2022-10-22T15:32:05;7.63;;;1.70;;
505;SDS011;551;48.524;9.056;2022-10-22T15:34:34;2.87;;;1.60;;
505;SDS011;551;48.524;9.056;2022-10-22T15:37:01;4.33;;;1.77;;
505;SDS011;551;48.524;9.056;2022-10-22T15:39:28;4.43;;;1.73;;
505;SDS011;551;48.524;9.056;2022-10-22T15:41:54;4.33;;;1.70;;
505;SDS011;551;48.524;9.056;2022-10-22T15:44:24;5.43;;;2.20;;
505;SDS011;551;48.524;9.056;2022-10-22T15:46:52;4.83;;;1.80;;
505;SDS011;551;48.524;9.056;2022-10-22T15:49:21;1.40;;;1.30;;
505;SDS011;551;48.524;9.056;2022-10-22T15:51:47;7.97;;;1.80;;
505;SDS011;551;48.524;9.056;2022-10-22T15:54:14;3.43;;;1.30;;
505;SDS011;551;48.524;9.056;2022-10-22T15:56:41;3.73;;;1.87;;
505;SDS011;551;48.524;9.056;2022-10-22T15:59:08;3.23;;;2.20;;
505;SDS011;551;48.524;9.056;2022-10-22T16:01:34;7.33;;;2.47;;
505;SDS011;551;48.524;9.056;2022-10-22T16:04:00;3.80;;;2.70;;
505;SDS011;551;48.524;9.056;2022-10-22T16:06:29;4.00;;;2.80;;
505;SDS011;551;48.524;9.056;2022-10-22T16:08:58;4.63;;;3.10;;
505;SDS011;551;48.524;9.056;2022-10-22T16:11:25;4.50;;;2.57;;
505;SDS011;551;48.524;9.056;2022-10-22T16:13:56;3.70;;;3.40;;
505;SDS011;551;48.524;9.056;2022-10-22T16:16:25;5.13;;;3.33;;
505;SDS011;551;48.524;9.056;2022-10-22T16:18:53;3.47;;;2.83;;
505;SDS011;551;48.524;9.056;2022-10-22T16:21:19;6.00;;;3.53;;
505;SDS011;551;48.524;9.056;2022-10-22T16:23:46;9.60;;;3.63;;
505;SDS011;551;48.524;9.056;2022-10-22T16:26:12;9.60;;;5.20;;
505;SDS011;551;48.524;9.056;2022-10-22T16:28:38;3.40;;;3.07;;
505;SDS011;551;48.524;9.056;2022-10-22T16:31:05;7.63;;;3.60;;
505;SDS011;551;48.524;9.056;2022-10-22T16:33:36;5.23;;;3.10;;
505;SDS011;551;48.524;9.056;2022-10-22T16:36:09;6.37;;;3.73;;
505;SDS011;551;48.524;9.056;2022-10-22T16:38:35;6.50;;;2.97;;
505;SDS011;551;48.524;9.056;2022-10-22T16:41:08;5.80;;;2.87;;
505;SDS011;551;48.524;9.056;2022-10-22T16:43:35;3.63;;;2.83;;
505;SDS011;551;48.524;9.056;2022-10-22T16:46:01;4.67;;;3.03;;
505;SDS011;551;48.524;9.056;2022-10-22T16:48:27;4.63;;;3.07;;
505;SDS011;551;48.524;9.056;2022-10-22T16:50:52;8.60;;;3.30;;
505;SDS011;551;48.524;9.056;2022-10-22T16:53:18;6.90;;;3.13;;
505;SDS011;551;48.524;9.056;2022-10-22T16:55:43;7.53;;;2.77;;
505;SDS011;551;48.524;9.056;2022-10-22T16:58:09;4.43;;;3.20;;
505;SDS011;551;48.524;9.056;2022-10-22T17:00:34;5.03;;;3.30;;
505;SDS011;551;48.524;9.056;2022-10-22T17:03:00;5.77;;;3.57;;
505;SDS011;551;48.524;9.056;2022-10-22T17:05:26;9.10;;;3.00;;
505;SDS011;551;48.524;9.056;2022-10-22T17:07:51;4.50;;;3.10;;
505;SDS011;551;48.524;9.056;2022-10-22T17:10:18;5.03;;;3.63;;
505;SDS011;551;48.524;9.056;2022-10-22T17:12:45;7.20;;;3.27;;
505;SDS011;551;48.524;9.056;2022-10-22T17:15:11;10.90;;;3.77;;
505;SDS011;551;48.524;9.056;2022-10-22T17:17:37;7.80;;;3.43;;
505;SDS011;551;48.524;9.056;2022-10-22T17:20:03;8.20;;;3.40;;
505;SDS011;551;48.524;9.056;2022-10-22T17:22:29;8.00;;;4.37;;
505;SDS011;551;48.524;9.056;2022-10-22T17:25:05;5.57;;;2.73;;